createdAt,value
2022-08-01T00:02:37.872Z,80.60
2022-08-01T00:07:41.842Z,80.80
2022-08-01T00:12:45.270Z,81.00
2022-08-01T00:17:47.806Z,80.90
2022-08-01T00:22:51.707Z,80.90
2022-08-01T00:27:54.129Z,81.00
2022-08-01T00:32:56.809Z,80.90
2022-08-01T00:38:00.619Z,80.90
2022-08-01T00:43:03.266Z,81.10
2022-08-01T00:48:05.995Z,81.20
2022-08-01T00:53:10.313Z,81.20
2022-08-01T00:58:21.708Z,81.20
2022-08-01T01:03:56.405Z,80.80
2022-08-01T01:09:03.683Z,80.30
2022-08-01T01:14:14.596Z,80.80
2022-08-01T01:19:25.622Z,80.70
2022-08-01T01:24:41.873Z,80.60
2022-08-01T01:30:00.192Z,80.70
2022-08-01T01:35:09.025Z,80.40
2022-08-01T01:40:13.392Z,80.50
2022-08-01T01:45:18.927Z,80.50
2022-08-01T01:50:23.019Z,80.80
2022-08-01T01:55:27.023Z,80.90
2022-08-01T02:00:31.834Z,81.00
2022-08-01T02:05:36.824Z,81.30
2022-08-01T02:10:40.546Z,81.20
2022-08-01T02:15:59.183Z,81.20
2022-08-01T02:21:09.366Z,81.40
2022-08-01T02:26:17.162Z,81.40
2022-08-01T02:31:23.832Z,81.40
2022-08-01T02:36:32.999Z,81.20
2022-08-01T02:41:41.299Z,81.20
2022-08-01T02:46:51.447Z,81.30
2022-08-01T02:51:56.013Z,81.10
2022-08-01T02:56:59.025Z,80.90
2022-08-01T03:02:04.032Z,80.80
2022-08-01T03:07:09.616Z,80.70
2022-08-01T03:12:15.553Z,80.50
2022-08-01T03:17:22.118Z,80.70
2022-08-01T03:22:27.267Z,80.80
2022-08-01T03:27:30.717Z,80.70
2022-08-01T03:32:35.780Z,80.70
2022-08-01T03:38:06.267Z,80.90
2022-08-01T03:43:12.100Z,81.00
2022-08-01T03:48:19.720Z,80.90
2022-08-01T03:53:26.049Z,80.90
2022-08-01T03:58:30.639Z,81.00
2022-08-01T04:03:35.000Z,80.80
2022-08-01T04:08:44.684Z,80.60
2022-08-01T04:13:47.229Z,80.20
2022-08-01T04:18:51.634Z,80.10
2022-08-01T04:23:55.106Z,80.00
2022-08-01T04:28:58.010Z,79.90
2022-08-01T04:34:04.415Z,79.70
2022-08-01T04:39:07.825Z,79.70
2022-08-01T04:44:10.341Z,79.70
2022-08-01T04:49:14.280Z,79.90
2022-08-01T04:54:16.708Z,80.10
2022-08-01T04:59:19.816Z,80.60
2022-08-01T05:04:24.255Z,81.10
2022-08-01T05:09:30.973Z,80.90
2022-08-01T05:14:33.691Z,79.80
2022-08-01T05:19:39.770Z,79.40
2022-08-01T05:24:42.772Z,78.30
2022-08-01T05:29:47.233Z,77.80
2022-08-01T05:34:51.187Z,78.00
2022-08-01T05:39:53.571Z,77.50
2022-08-01T05:44:56.031Z,76.60
2022-08-01T05:49:59.819Z,75.00
2022-08-01T05:55:02.292Z,72.50
2022-08-01T06:00:06.043Z,71.70
2022-08-01T06:05:13.219Z,69.30
2022-08-01T06:10:16.283Z,66.10
2022-08-01T06:15:18.701Z,65.70
2022-08-01T06:20:22.643Z,65.70
2022-08-01T06:25:25.349Z,66.70
2022-08-01T06:30:28.043Z,68.00
2022-08-01T06:35:32.523Z,68.40
2022-08-01T06:40:35.086Z,67.70
2022-08-01T06:45:39.148Z,67.70
2022-08-01T06:50:43.203Z,66.40
2022-08-01T06:55:45.636Z,62.00
2022-08-01T07:00:48.161Z,61.10
2022-08-01T07:05:52.354Z,59.90
2022-08-01T07:10:54.895Z,58.10
2022-08-01T07:15:57.792Z,57.70
2022-08-01T07:21:01.679Z,56.80
2022-08-01T07:26:07.375Z,55.30
2022-08-01T07:31:10.182Z,54.60
2022-08-01T07:36:14.472Z,53.90
2022-08-01T07:41:17.055Z,52.90
2022-08-01T07:46:19.562Z,53.00
2022-08-01T07:51:23.561Z,52.60
2022-08-01T07:56:26.139Z,53.10
2022-08-01T08:01:28.820Z,54.10
2022-08-01T08:06:32.888Z,54.30
2022-08-01T08:11:35.486Z,54.10
2022-08-01T08:16:37.978Z,54.70
2022-08-01T08:21:42.167Z,55.30
2022-08-01T08:26:44.714Z,54.90
2022-08-01T08:31:52.679Z,55.60
2022-08-01T08:36:58.903Z,56.80
2022-08-01T08:42:02.555Z,54.80
2022-08-01T08:47:06.139Z,53.50
2022-08-01T08:52:14.208Z,52.90
2022-08-01T08:57:17.316Z,52.10
2022-08-01T09:02:19.758Z,52.10
2022-08-01T09:07:23.623Z,50.80
2022-08-01T09:12:27.089Z,50.40
2022-08-01T09:17:39.961Z,50.50
2022-08-01T09:22:47.741Z,50.00
2022-08-01T09:28:04.135Z,48.90
2022-08-01T09:33:17.849Z,46.50
2022-08-01T09:38:26.861Z,46.90
2022-08-01T09:43:29.791Z,44.40
2022-08-01T09:48:34.435Z,48.20
2022-08-01T09:53:51.757Z,44.20
2022-08-01T09:59:00.381Z,41.80
2022-08-01T10:04:11.330Z,43.40
2022-08-01T10:09:15.949Z,42.30
2022-08-01T10:14:20.395Z,42.20
2022-08-01T10:19:25.089Z,41.10
2022-08-01T10:24:36.969Z,41.50
2022-08-01T10:30:00.101Z,40.70
2022-08-01T10:35:15.005Z,39.70
2022-08-01T10:40:30.100Z,40.70
2022-08-01T10:45:34.150Z,41.10
2022-08-01T10:50:41.476Z,40.80
2022-08-01T10:55:50.969Z,39.60
2022-08-01T11:01:19.795Z,38.90
2022-08-01T11:06:26.856Z,38.80
2022-08-01T11:11:37.637Z,39.50
2022-08-01T11:16:41.878Z,38.80
2022-08-01T11:22:02.760Z,38.70
2022-08-01T11:27:23.487Z,38.50
2022-08-01T11:32:26.899Z,38.30
2022-08-01T11:37:31.029Z,39.30
2022-08-01T11:42:35.095Z,38.80
2022-08-01T11:47:49.858Z,38.90
2022-08-01T11:52:59.441Z,37.30
2022-08-01T11:58:05.714Z,37.40
2022-08-01T12:03:09.682Z,37.40
2022-08-01T12:08:12.179Z,37.80
2022-08-01T12:13:16.432Z,37.80
2022-08-01T12:18:18.913Z,37.80
2022-08-01T12:23:21.383Z,38.20
2022-08-01T12:28:25.329Z,37.80
2022-08-01T12:33:27.852Z,37.50
2022-08-01T12:38:31.674Z,37.90
2022-08-01T12:43:35.534Z,37.90
2022-08-01T12:48:38.234Z,37.70
2022-08-01T12:53:41.784Z,37.70
2022-08-01T12:58:45.844Z,37.30
2022-08-01T13:04:00.817Z,37.10
2022-08-01T13:09:07.710Z,36.50
2022-08-01T13:14:11.766Z,37.30
2022-08-01T13:19:14.912Z,37.40
2022-08-01T13:24:23.607Z,37.30
2022-08-01T13:29:33.847Z,37.80
2022-08-01T13:34:36.467Z,37.50
2022-08-01T13:39:39.063Z,37.80
2022-08-01T13:44:43.527Z,37.80
2022-08-01T13:49:46.152Z,37.70
2022-08-01T13:54:48.651Z,37.50
2022-08-01T13:59:53.299Z,37.20
2022-08-01T14:04:55.982Z,37.10
2022-08-01T14:10:18.243Z,37.80
2022-08-01T14:15:37.856Z,38.00
2022-08-01T14:20:41.944Z,38.00
2022-08-01T14:26:01.651Z,38.10
2022-08-01T14:31:08.579Z,38.10
2022-08-01T14:36:30.235Z,37.60
2022-08-01T14:41:33.582Z,38.00
2022-08-01T14:46:37.572Z,38.20
2022-08-01T14:51:59.825Z,38.30
2022-08-01T14:57:02.201Z,38.40
2022-08-01T15:02:06.316Z,38.30
2022-08-01T15:07:09.868Z,38.50
2022-08-01T15:12:12.756Z,38.60
2022-08-01T15:17:16.758Z,38.70
2022-08-01T15:22:19.555Z,38.50
2022-08-01T15:27:23.358Z,38.90
2022-08-01T15:32:27.187Z,38.90
2022-08-01T15:37:29.567Z,38.80
2022-08-01T15:42:32.191Z,39.20
2022-08-01T15:47:36.112Z,39.20
2022-08-01T15:52:38.584Z,39.40
2022-08-01T15:57:41.165Z,39.00
2022-08-01T16:02:45.155Z,39.10
2022-08-01T16:07:59.663Z,39.00
2022-08-01T16:13:06.918Z,39.00
2022-08-01T16:18:12.332Z,39.20
2022-08-01T16:23:15.890Z,39.20
2022-08-01T16:28:19.670Z,39.50
2022-08-01T16:33:43.501Z,39.70
2022-08-01T16:38:46.745Z,39.90
2022-08-01T16:43:52.974Z,39.90
2022-08-01T16:48:58.531Z,39.90
2022-08-01T16:54:01.162Z,40.10
2022-08-01T16:59:03.885Z,40.20
2022-08-01T17:04:07.812Z,40.30
2022-08-01T17:09:10.390Z,40.40
2022-08-01T17:14:12.836Z,40.60
2022-08-01T17:19:16.910Z,40.70
2022-08-01T17:24:19.303Z,40.80
2022-08-01T17:29:21.868Z,40.80
2022-08-01T17:34:26.565Z,41.00
2022-08-01T17:39:38.555Z,41.20
2022-08-01T17:44:41.830Z,41.40
2022-08-01T17:49:55.133Z,41.60
2022-08-01T17:54:58.236Z,41.80
2022-08-01T18:00:00.795Z,41.90
2022-08-01T18:05:05.260Z,42.00
2022-08-01T18:10:13.810Z,42.30
2022-08-01T18:15:22.283Z,42.30
2022-08-01T18:20:35.927Z,42.60
2022-08-01T18:25:39.264Z,43.20
2022-08-01T18:30:43.401Z,43.10
2022-08-01T18:35:52.289Z,43.40
2022-08-01T18:40:57.038Z,43.70
2022-08-01T18:45:59.514Z,43.90
2022-08-01T18:51:04.891Z,44.20
2022-08-01T18:56:11.833Z,44.60
2022-08-01T19:01:14.451Z,44.90
2022-08-01T19:06:18.630Z,45.10
2022-08-01T19:11:23.533Z,45.30
2022-08-01T19:16:26.716Z,45.60
2022-08-01T19:21:30.634Z,45.90
2022-08-01T19:26:34.495Z,46.30
2022-08-01T19:31:41.594Z,46.70
2022-08-01T19:36:51.402Z,47.50
2022-08-01T19:41:56.023Z,48.10
2022-08-01T19:47:01.056Z,48.20
2022-08-01T19:52:06.053Z,48.70
2022-08-01T19:57:09.747Z,49.20
2022-08-01T20:02:17.345Z,49.30
2022-08-01T20:07:21.213Z,49.90
2022-08-01T20:12:23.712Z,49.90
2022-08-01T20:17:26.344Z,50.00
2022-08-01T20:22:33.880Z,50.20
2022-08-01T20:27:37.649Z,50.90
2022-08-01T20:32:41.087Z,51.30
2022-08-01T20:38:06.894Z,51.30
2022-08-01T20:43:10.725Z,52.10
2022-08-01T20:48:15.163Z,51.90
2022-08-01T20:53:19.274Z,52.20
2022-08-01T20:59:07.553Z,52.70
2022-08-01T21:04:39.203Z,53.70
2022-08-01T21:09:43.603Z,53.50
2022-08-01T21:14:52.262Z,53.20
2022-08-01T21:19:55.581Z,53.80
2022-08-01T21:25:06.152Z,53.60
2022-08-01T21:30:09.862Z,54.20
2022-08-01T21:35:16.352Z,54.30
2022-08-01T21:40:24.280Z,54.50
2022-08-01T21:45:28.142Z,54.70
2022-08-01T21:50:39.452Z,54.80
2022-08-01T21:56:14.489Z,55.10
2022-08-01T22:01:25.316Z,56.00
2022-08-01T22:06:34.565Z,56.10
2022-08-01T22:12:00.848Z,56.40
2022-08-01T22:17:03.448Z,57.20
2022-08-01T22:22:29.077Z,56.70
2022-08-01T22:28:08.421Z,56.70
2022-08-01T22:33:07.259Z,57.00
2022-08-01T22:38:20.137Z,57.00
2022-08-01T22:43:34.606Z,57.20
2022-08-01T22:48:44.324Z,57.90
2022-08-01T22:53:54.977Z,58.00
2022-08-01T22:59:01.809Z,58.60
2022-08-01T23:04:05.175Z,58.50
2022-08-01T23:09:08.706Z,58.40
2022-08-01T23:14:14.730Z,58.90
2022-08-01T23:19:17.705Z,59.30
2022-08-01T23:24:20.647Z,59.50
2022-08-01T23:29:24.770Z,59.70
2022-08-01T23:34:27.148Z,59.90
2022-08-01T23:39:29.575Z,59.70
2022-08-01T23:44:34.026Z,59.70
2022-08-01T23:49:53.172Z,59.70
2022-08-01T23:54:56.270Z,59.60
